Time;durP1;ratioP1;P1;durP2;ratioP2;P2;SDS_P1;SDS_P2;PMS_P1;PMS_P2;Temp;Humidity;BMP_temperature;BMP_pressure;BME280_temperature;BME280_humidity;BME280_pressure;Samples;Min_cycle;Max_cycle;Signal;HPM_P1;HPM_P2
2021/09/27 00:01:00;;;;;;;18.42;13.10;;;;;;;;;;5000454;28;20023;-66
2021/09/27 00:03:27;;;;;;;19.27;13.40;;;;;;;;;;4997552;28;20458;-66
2021/09/27 00:05:52;;;;;;;18.92;12.68;;;;;;;;;;5001491;28;20113;-66
2021/09/27 00:08:17;;;;;;;21.80;13.43;;;;;;;;;;4992339;28;20561;-66
2021/09/27 00:10:44;;;;;;;20.95;13.45;;;;;;;;;;5004542;28;20438;-67
2021/09/27 00:13:10;;;;;;;19.48;12.77;;;;;;;;;;4999739;28;20019;-67
2021/09/27 00:15:37;;;;;;;20.00;13.35;;;;;;;;;;4997308;28;20129;-67
2021/09/27 00:18:03;;;;;;;19.10;13.00;;;;;;;;;;4999987;28;20126;-66
2021/09/27 00:20:28;;;;;;;21.35;13.07;;;;;;;;;;5006711;28;20034;-67
2021/09/27 00:22:54;;;;;;;18.15;12.25;;;;;;;;;;5005137;28;20028;-66
2021/09/27 00:25:21;;;;;;;18.58;12.95;;;;;;;;;;5004802;28;20034;-65
2021/09/27 00:27:46;;;;;;;17.33;12.43;;;;;;;;;;4998106;28;20054;-66
2021/09/27 00:30:12;;;;;;;19.30;12.40;;;;;;;;;;4993324;28;20061;-67
2021/09/27 00:32:37;;;;;;;18.92;12.90;;;;;;;;;;5006700;28;20037;-66
2021/09/27 00:35:03;;;;;;;17.95;12.85;;;;;;;;;;5003603;28;20026;-66
2021/09/27 00:37:28;;;;;;;16.67;11.88;;;;;;;;;;5001481;28;20112;-66
2021/09/27 00:39:53;;;;;;;17.88;12.38;;;;;;;;;;5005024;28;20364;-67
2021/09/27 00:42:18;;;;;;;18.77;12.63;;;;;;;;;;4999343;28;20034;-65
2021/09/27 00:44:43;;;;;;;17.83;12.70;;;;;;;;;;4998752;28;20062;-67
2021/09/27 00:47:09;;;;;;;18.63;12.13;;;;;;;;;;5008258;28;20331;-68
2021/09/27 00:49:34;;;;;;;17.00;12.03;;;;;;;;;;5006706;28;20029;-66
2021/09/27 00:51:59;;;;;;;16.83;11.83;;;;;;;;;;5010199;28;20793;-66
2021/09/27 00:54:27;;;;;;;18.05;12.85;;;;;;;;;;4996275;28;20273;-66
2021/09/27 00:57:07;;;;;;;18.58;13.05;;;;;;;;;;5000752;28;20093;-66
2021/09/27 00:59:34;;;;;;;16.63;11.82;;;;;;;;;;5003622;28;20050;-66
2021/09/27 01:01:59;;;;;;;18.95;12.70;;;;;;;;;;5002039;28;20029;-66
2021/09/27 01:04:25;;;;;;;18.52;12.48;;;;;;;;;;5002298;28;20030;-66
2021/09/27 01:07:01;;;;;;;18.73;12.30;;;;;;;;;;5002924;28;20080;-65
2021/09/27 01:09:26;;;;;;;20.42;13.30;;;;;;;;;;4999955;28;20026;-66
2021/09/27 01:11:57;;;;;;;17.15;11.95;;;;;;;;;;5002071;28;20030;-66
2021/09/27 01:14:22;;;;;;;18.95;12.88;;;;;;;;;;5000611;28;20299;-67
2021/09/27 01:17:07;;;;;;;18.08;12.30;;;;;;;;;;4997062;28;20029;-66
2021/09/27 01:20:01;;;;;;;17.27;12.68;;;;;;;;;;5001700;28;20356;-68
2021/09/27 01:22:50;;;;;;;20.23;13.32;;;;;;;;;;5000111;28;20426;-66
2021/09/27 01:25:41;;;;;;;17.73;11.90;;;;;;;;;;5004889;28;20034;-66
2021/09/27 01:28:22;;;;;;;18.98;12.48;;;;;;;;;;5004086;28;20052;-66
2021/09/27 01:30:54;;;;;;;19.13;12.70;;;;;;;;;;5009547;28;20087;-66
2021/09/27 01:33:39;;;;;;;22.23;13.93;;;;;;;;;;5004649;28;20025;-67
2021/09/27 01:36:07;;;;;;;20.77;13.95;;;;;;;;;;5002482;28;20457;-66
2021/09/27 01:38:38;;;;;;;24.20;14.65;;;;;;;;;;5007548;28;20413;-66
2021/09/27 01:41:08;;;;;;;19.73;14.02;;;;;;;;;;4999012;28;20025;-65
2021/09/27 01:43:33;;;;;;;;;;;;;;;;;;5002507;28;20037;-66
2021/09/27 01:46:07;;;;;;;21.63;13.82;;;;;;;;;;5005331;28;19909;-65
2021/09/27 01:48:38;;;;;;;20.45;14.43;;;;;;;;;;5001957;28;20112;-65
2021/09/27 01:51:12;;;;;;;20.13;13.75;;;;;;;;;;5001420;28;20549;-67
2021/09/27 01:53:40;;;;;;;21.00;14.27;;;;;;;;;;4998798;28;20036;-66
2021/09/27 01:56:27;;;;;;;21.30;14.38;;;;;;;;;;5003823;28;20459;-66
2021/09/27 01:59:02;;;;;;;22.02;14.23;;;;;;;;;;5008135;28;20106;-66
2021/09/27 02:01:27;;;;;;;20.20;13.15;;;;;;;;;;5007056;28;20026;-66
2021/09/27 02:03:59;;;;;;;20.73;13.65;;;;;;;;;;5006422;28;20198;-66
2021/09/27 02:06:31;;;;;;;20.02;13.82;;;;;;;;;;5003543;28;20359;-66
2021/09/27 02:09:00;;;;;;;21.80;14.35;;;;;;;;;;5004324;28;20431;-67
2021/09/27 02:11:25;;;;;;;19.80;13.98;;;;;;;;;;5002767;28;20075;-65
2021/09/27 02:14:02;;;;;;;19.67;13.18;;;;;;;;;;5006501;28;20854;-67
2021/09/27 02:16:27;;;;;;;22.02;14.15;;;;;;;;;;5002997;28;20022;-67
2021/09/27 02:19:13;;;;;;;20.55;13.43;;;;;;;;;;5002701;28;20432;-66
2021/09/27 02:21:41;;;;;;;21.08;13.75;;;;;;;;;;4999487;28;20281;-66
2021/09/27 02:24:18;;;;;;;22.95;13.98;;;;;;;;;;5001001;28;20039;-66
2021/09/27 02:26:45;;;;;;;19.92;13.30;;;;;;;;;;5001663;28;20033;-66
2021/09/27 02:29:11;;;;;;;18.60;13.35;;;;;;;;;;5005061;28;20029;-66
2021/09/27 02:31:40;;;;;;;19.92;13.65;;;;;;;;;;4998962;28;20072;-66
2021/09/27 02:34:16;;;;;;;18.30;13.05;;;;;;;;;;5003314;28;20097;-66
2021/09/27 02:36:46;;;;;;;19.13;14.32;;;;;;;;;;5001173;28;20057;-66
2021/09/27 02:39:20;;;;;;;19.95;14.05;;;;;;;;;;4996578;28;20030;-66
2021/09/27 02:41:52;;;;;;;19.48;14.15;;;;;;;;;;4997853;28;20105;-66
2021/09/27 02:44:17;;;;;;;19.40;13.35;;;;;;;;;;5004606;28;20043;-67
2021/09/27 02:46:46;;;;;;;17.65;12.60;;;;;;;;;;4994747;28;20109;-68
2021/09/27 02:49:13;;;;;;;18.20;13.18;;;;;;;;;;4999889;28;20057;-66
2021/09/27 02:51:43;;;;;;;17.98;12.85;;;;;;;;;;4997017;28;20088;-66
2021/09/27 02:54:09;;;;;;;18.33;13.40;;;;;;;;;;4994878;28;20346;-66
2021/09/27 02:56:47;;;;;;;16.63;13.30;;;;;;;;;;5004876;28;20022;-65
2021/09/27 02:59:24;;;;;;;19.02;13.20;;;;;;;;;;5001117;28;20466;-65
2021/09/27 03:01:54;;;;;;;17.85;12.77;;;;;;;;;;5001074;28;20032;-65
2021/09/27 03:04:45;;;;;;;18.02;12.68;;;;;;;;;;5006817;28;20378;-65
2021/09/27 03:07:23;;;;;;;16.60;12.07;;;;;;;;;;5003182;28;20057;-65
2021/09/27 03:09:50;;;;;;;17.05;13.00;;;;;;;;;;4998002;28;20234;-64
2021/09/27 03:12:37;;;;;;;14.13;11.27;;;;;;;;;;4993670;28;20026;-66
2021/09/27 03:15:13;;;;;;;15.68;11.00;;;;;;;;;;4997876;28;20033;-66
2021/09/27 03:17:45;;;;;;;16.25;11.82;;;;;;;;;;4995543;28;20354;-66
2021/09/27 03:20:10;;;;;;;16.52;12.55;;;;;;;;;;5006351;28;20367;-68
2021/09/27 03:22:48;;;;;;;17.33;13.85;;;;;;;;;;4996219;28;20886;-65
2021/09/27 03:25:20;;;;;;;16.05;12.05;;;;;;;;;;5003968;28;20292;-66
2021/09/27 03:28:06;;;;;;;14.65;10.32;;;;;;;;;;4994341;28;20030;-66
2021/09/27 03:30:49;;;;;;;16.42;11.13;;;;;;;;;;4999980;28;20068;-65
2021/09/27 03:33:35;;;;;;;16.75;10.90;;;;;;;;;;5001885;28;20493;-66
2021/09/27 03:36:03;;;;;;;15.50;10.98;;;;;;;;;;5003247;28;20930;-66
2021/09/27 03:38:31;;;;;;;15.15;10.82;;;;;;;;;;5000294;28;20030;-66
2021/09/27 03:41:06;;;;;;;18.17;12.18;;;;;;;;;;4993785;28;20026;-67
2021/09/27 03:43:43;;;;;;;17.20;12.05;;;;;;;;;;4995768;28;20097;-67
2021/09/27 03:46:08;;;;;;;17.35;11.23;;;;;;;;;;4996031;28;20021;-66
2021/09/27 03:48:45;;;;;;;14.38;10.43;;;;;;;;;;4998575;28;20026;-65
2021/09/27 03:51:26;;;;;;;15.45;11.15;;;;;;;;;;4994626;28;20034;-66
2021/09/27 03:54:11;;;;;;;15.23;10.00;;;;;;;;;;4992995;28;20045;-67
2021/09/27 03:56:41;;;;;;;16.08;10.98;;;;;;;;;;4994842;28;20034;-66
2021/09/27 03:59:11;;;;;;;15.52;11.18;;;;;;;;;;4992488;28;20054;-66
2021/09/27 04:01:43;;;;;;;18.63;11.32;;;;;;;;;;4994857;28;20036;-66
2021/09/27 04:04:20;;;;;;;14.48;10.57;;;;;;;;;;4990652;28;20805;-66
2021/09/27 04:07:07;;;;;;;12.98;9.45;;;;;;;;;;4998368;28;20104;-65
2021/09/27 04:09:41;;;;;;;15.35;10.57;;;;;;;;;;4996284;28;20037;-66
2021/09/27 04:12:25;;;;;;;14.35;10.63;;;;;;;;;;4995808;28;20100;-66
2021/09/27 04:14:53;;;;;;;15.38;10.30;;;;;;;;;;4996052;28;20018;-67
2021/09/27 04:17:36;;;;;;;15.23;10.18;;;;;;;;;;5000984;28;20026;-67
2021/09/27 04:20:02;;;;;;;14.07;10.00;;;;;;;;;;4996903;28;20041;-66
2021/09/27 04:22:34;;;;;;;14.65;9.70;;;;;;;;;;5004589;28;20022;-66
2021/09/27 04:25:06;;;;;;;14.70;10.05;;;;;;;;;;5002027;28;20348;-66
2021/09/27 04:27:50;;;;;;;14.60;9.57;;;;;;;;;;4997608;28;20054;-66
2021/09/27 04:30:21;;;;;;;13.63;9.82;;;;;;;;;;4991491;28;20018;-65
2021/09/27 04:32:55;;;;;;;14.43;9.98;;;;;;;;;;5005715;28;20038;-66
2021/09/27 04:35:46;;;;;;;15.20;9.77;;;;;;;;;;5002137;28;20021;-67
2021/09/27 04:38:12;;;;;;;14.02;9.13;;;;;;;;;;4998918;28;20088;-66
2021/09/27 04:40:56;;;;;;;13.52;9.65;;;;;;;;;;5001696;28;20477;-66
2021/09/27 04:43:26;;;;;;;14.10;9.63;;;;;;;;;;4993526;28;20041;-66
2021/09/27 04:45:51;;;;;;;;;;;;;;;;;;4998551;28;20076;-65
2021/09/27 04:48:23;;;;;;;17.25;10.27;;;;;;;;;;5002254;28;19921;-66
2021/09/27 04:51:07;;;;;;;13.35;9.63;;;;;;;;;;4999380;28;20359;-66
2021/09/27 04:53:49;;;;;;;13.23;9.38;;;;;;;;;;4998016;28;20040;-66
2021/09/27 04:56:25;;;;;;;13.05;9.27;;;;;;;;;;4993627;28;20026;-67
2021/09/27 04:58:55;;;;;;;14.32;9.40;;;;;;;;;;4994529;28;20062;-65
2021/09/27 05:01:31;;;;;;;14.07;9.43;;;;;;;;;;5001593;28;20021;-67
2021/09/27 05:04:01;;;;;;;13.95;9.52;;;;;;;;;;5002023;28;20041;-65
2021/09/27 05:06:32;;;;;;;14.93;10.00;;;;;;;;;;4993474;28;20164;-66
2021/09/27 05:09:02;;;;;;;15.20;10.35;;;;;;;;;;4995595;28;20116;-66
2021/09/27 05:11:40;;;;;;;16.15;10.23;;;;;;;;;;4995174;28;20078;-66
2021/09/27 05:14:30;;;;;;;14.07;9.55;;;;;;;;;;5002862;28;20392;-67
2021/09/27 05:16:55;;;;;;;14.80;9.70;;;;;;;;;;5000822;28;20050;-66
2021/09/27 05:19:23;;;;;;;16.23;10.60;;;;;;;;;;5002183;28;20064;-66
2021/09/27 05:22:15;;;;;;;15.45;10.55;;;;;;;;;;5000271;28;20281;-65
2021/09/27 05:24:43;;;;;;;16.02;10.20;;;;;;;;;;4999867;28;20034;-64
2021/09/27 05:27:30;;;;;;;15.32;10.50;;;;;;;;;;5000572;28;20777;-64
2021/09/27 05:29:58;;;;;;;16.73;10.18;;;;;;;;;;4999535;28;20121;-65
2021/09/27 05:32:34;;;;;;;16.08;10.25;;;;;;;;;;5004977;28;20019;-64
2021/09/27 05:35:21;;;;;;;15.00;10.40;;;;;;;;;;4999419;28;20021;-65
2021/09/27 05:37:46;;;;;;;15.50;10.38;;;;;;;;;;4995357;28;20451;-65
2021/09/27 05:40:31;;;;;;;14.05;10.10;;;;;;;;;;4991852;28;20121;-66
2021/09/27 05:42:57;;;;;;;13.80;9.10;;;;;;;;;;4997857;28;20111;-64
2021/09/27 05:45:25;;;;;;;14.18;9.85;;;;;;;;;;4997794;28;20069;-64
2021/09/27 05:47:50;;;;;;;14.05;9.98;;;;;;;;;;5010676;28;20878;-64
2021/09/27 05:50:15;;;;;;;14.02;9.70;;;;;;;;;;5010856;28;20021;-64
2021/09/27 05:52:47;;;;;;;14.23;10.32;;;;;;;;;;5010535;28;20539;-64
2021/09/27 05:55:20;;;;;;;14.35;9.68;;;;;;;;;;5003715;28;20032;-64
2021/09/27 05:57:49;;;;;;;15.60;10.40;;;;;;;;;;4998449;28;20018;-64
2021/09/27 06:00:21;;;;;;;12.27;8.75;;;;;;;;;;4992892;28;20536;-64
2021/09/27 06:02:46;;;;;;;13.63;9.25;;;;;;;;;;5005070;28;20038;-58
2021/09/27 06:05:11;;;;;;;14.60;9.63;;;;;;;;;;4996652;28;20505;-59
2021/09/27 06:07:36;;;;;;;14.98;8.95;;;;;;;;;;5002321;28;20282;-60
2021/09/27 06:10:01;;;;;;;12.25;8.55;;;;;;;;;;4998523;28;20498;-59
2021/09/27 06:12:30;;;;;;;11.52;8.25;;;;;;;;;;4995783;28;20080;-59
2021/09/27 06:14:56;;;;;;;10.70;7.80;;;;;;;;;;4997225;28;20276;-59
2021/09/27 06:17:40;;;;;;;10.40;7.75;;;;;;;;;;4991726;28;20057;-59
2021/09/27 06:20:24;;;;;;;13.48;8.20;;;;;;;;;;4991376;28;20030;-59
2021/09/27 06:23:06;;;;;;;11.90;8.43;;;;;;;;;;5004680;28;20101;-60
2021/09/27 06:25:37;;;;;;;9.50;7.53;;;;;;;;;;4998508;28;20367;-60
2021/09/27 06:28:05;;;;;;;13.10;7.47;;;;;;;;;;4991093;28;20030;-59
2021/09/27 06:31:02;;;;;;;9.82;7.22;;;;;;;;;;4995128;28;20049;-59
2021/09/27 06:33:35;;;;;;;9.48;7.15;;;;;;;;;;5021253;28;20103;-60
2021/09/27 06:36:05;;;;;;;9.95;6.75;;;;;;;;;;5027147;28;20523;-60
2021/09/27 06:38:33;;;;;;;9.38;6.90;;;;;;;;;;5027097;28;20029;-59
2021/09/27 06:40:59;;;;;;;9.80;6.93;;;;;;;;;;5027463;28;20755;-59
2021/09/27 06:43:25;;;;;;;9.52;6.85;;;;;;;;;;5027002;28;20030;-60
2021/09/27 06:45:51;;;;;;;9.38;6.53;;;;;;;;;;5027030;28;20018;-60
2021/09/27 06:48:16;;;;;;;10.23;6.72;;;;;;;;;;5027141;28;20423;-58
2021/09/27 06:50:41;;;;;;;8.43;6.05;;;;;;;;;;5026968;28;20033;-59
2021/09/27 06:53:07;;;;;;;9.45;5.85;;;;;;;;;;5027249;28;20037;-60
2021/09/27 06:55:32;;;;;;;7.72;6.20;;;;;;;;;;5026803;28;20045;-60
2021/09/27 06:57:57;;;;;;;8.32;6.68;;;;;;;;;;5009708;28;20037;-60
2021/09/27 07:00:23;;;;;;;13.60;7.53;;;;;;;;;;5027088;28;20044;-60
2021/09/27 07:02:48;;;;;;;9.95;6.38;;;;;;;;;;5027098;28;20375;-60
2021/09/27 07:05:13;;;;;;;10.27;6.23;;;;;;;;;;5026843;28;20068;-60
2021/09/27 07:07:39;;;;;;;8.75;6.55;;;;;;;;;;5026739;28;20265;-60
2021/09/27 07:10:05;;;;;;;10.00;6.30;;;;;;;;;;5004204;28;20033;-60
2021/09/27 07:12:30;;;;;;;9.43;7.13;;;;;;;;;;5009196;28;20640;-59
2021/09/27 07:14:55;;;;;;;9.27;6.43;;;;;;;;;;5009072;28;20034;-59
2021/09/27 07:17:20;;;;;;;8.73;6.72;;;;;;;;;;5007549;28;20627;-59
2021/09/27 07:19:45;;;;;;;9.77;7.00;;;;;;;;;;4996368;28;20486;-61
2021/09/27 07:22:10;;;;;;;10.10;6.38;;;;;;;;;;4990412;28;20253;-59
2021/09/27 07:24:36;;;;;;;8.33;6.73;;;;;;;;;;4992309;28;20026;-60
2021/09/27 07:27:02;;;;;;;7.68;6.28;;;;;;;;;;4990622;28;20348;-60
2021/09/27 07:29:27;;;;;;;8.80;6.22;;;;;;;;;;4996388;28;20072;-59
2021/09/27 07:31:52;;;;;;;10.33;6.60;;;;;;;;;;4990377;28;20166;-61
2021/09/27 07:34:18;;;;;;;8.95;6.22;;;;;;;;;;4994286;28;20270;-60
2021/09/27 07:36:43;;;;;;;7.88;6.13;;;;;;;;;;4991044;28;20477;-59
2021/09/27 07:39:09;;;;;;;8.07;6.33;;;;;;;;;;4996640;28;20041;-59
2021/09/27 07:41:34;;;;;;;8.18;6.05;;;;;;;;;;4990256;28;20635;-59
2021/09/27 07:44:00;;;;;;;7.45;5.53;;;;;;;;;;4990087;28;20117;-60
2021/09/27 07:46:25;;;;;;;7.53;5.60;;;;;;;;;;4999411;28;20028;-59
2021/09/27 07:48:51;;;;;;;9.23;6.22;;;;;;;;;;5007817;28;20375;-59
2021/09/27 07:51:16;;;;;;;7.50;5.50;;;;;;;;;;4993217;28;20030;-60
2021/09/27 07:53:41;;;;;;;8.75;5.47;;;;;;;;;;4990029;28;20014;-60
2021/09/27 07:56:06;;;;;;;6.68;5.35;;;;;;;;;;4993117;28;20018;-60
2021/09/27 07:58:32;;;;;;;7.27;5.43;;;;;;;;;;4997495;28;20144;-61
2021/09/27 08:00:57;;;;;;;9.27;5.78;;;;;;;;;;5001061;28;20273;-59
2021/09/27 08:03:23;;;;;;;7.88;5.50;;;;;;;;;;4995755;28;20037;-59
2021/09/27 08:05:49;;;;;;;8.60;5.43;;;;;;;;;;4989656;28;20018;-60
2021/09/27 08:08:14;;;;;;;8.35;6.38;;;;;;;;;;4997271;28;20029;-59
2021/09/27 08:10:39;;;;;;;7.73;5.57;;;;;;;;;;5003133;28;20061;-60
2021/09/27 08:13:05;;;;;;;9.50;6.10;;;;;;;;;;4989961;28;20360;-59
2021/09/27 08:15:33;;;;;;;7.78;6.03;;;;;;;;;;4989799;28;20027;-60
2021/09/27 08:17:59;;;;;;;8.18;6.22;;;;;;;;;;4989462;28;20490;-59
2021/09/27 08:20:28;;;;;;;8.60;6.57;;;;;;;;;;4990192;28;20085;-60
2021/09/27 08:22:54;;;;;;;7.78;6.07;;;;;;;;;;5008746;28;20022;-61
2021/09/27 08:25:21;;;;;;;8.10;5.95;;;;;;;;;;5008380;28;20025;-59
2021/09/27 08:27:47;;;;;;;8.23;6.38;;;;;;;;;;4998999;28;20081;-60
2021/09/27 08:30:15;;;;;;;8.77;6.78;;;;;;;;;;4990627;28;20030;-60
2021/09/27 08:32:41;;;;;;;11.30;7.38;;;;;;;;;;4992806;28;20022;-61
2021/09/27 08:35:06;;;;;;;9.57;6.90;;;;;;;;;;5008154;28;20534;-61
2021/09/27 08:37:31;;;;;;;9.43;6.88;;;;;;;;;;5007810;28;20030;-61
2021/09/27 08:39:56;;;;;;;9.90;7.33;;;;;;;;;;4995229;28;20041;-60
2021/09/27 08:42:24;;;;;;;10.10;7.68;;;;;;;;;;4996376;28;20340;-60
2021/09/27 08:44:51;;;;;;;10.18;7.20;;;;;;;;;;4996840;28;20069;-60
2021/09/27 08:47:26;;;;;;;9.55;7.10;;;;;;;;;;4993014;28;20026;-58
2021/09/27 08:49:53;;;;;;;10.40;6.85;;;;;;;;;;4992838;28;20481;-60
2021/09/27 08:52:19;;;;;;;11.35;7.35;;;;;;;;;;4993192;28;20407;-60
2021/09/27 08:54:46;;;;;;;9.30;7.18;;;;;;;;;;4996080;28;20025;-59
2021/09/27 08:57:19;;;;;;;10.18;7.30;;;;;;;;;;4992729;28;20030;-59
2021/09/27 08:59:49;;;;;;;10.13;7.40;;;;;;;;;;4993569;28;20056;-59
2021/09/27 09:02:17;;;;;;;9.15;6.53;;;;;;;;;;4995760;28;20018;-60
2021/09/27 09:05:14;;;;;;;8.68;6.40;;;;;;;;;;4996602;28;20057;-59
2021/09/27 09:07:45;;;;;;;10.38;6.60;;;;;;;;;;5023553;28;20407;-59
2021/09/27 09:10:11;;;;;;;8.77;6.68;;;;;;;;;;5029172;28;20140;-60
2021/09/27 09:12:44;;;;;;;7.13;6.40;;;;;;;;;;5028014;28;20028;-59
2021/09/27 09:15:26;;;;;;;8.65;6.75;;;;;;;;;;5028715;28;20079;-60
2021/09/27 09:18:03;;;;;;;11.65;7.10;;;;;;;;;;5029001;28;20101;-59
2021/09/27 09:20:49;;;;;;;10.25;6.68;;;;;;;;;;5028327;28;20104;-59
2021/09/27 09:23:20;;;;;;;8.40;6.55;;;;;;;;;;5029119;28;20049;-59
2021/09/27 09:25:45;;;;;;;10.07;6.70;;;;;;;;;;5022903;28;20057;-59
2021/09/27 09:28:11;;;;;;;8.87;6.90;;;;;;;;;;5028423;28;20057;-59
2021/09/27 09:30:43;;;;;;;9.73;6.60;;;;;;;;;;5022476;28;20264;-59
2021/09/27 09:33:08;;;;;;;9.02;5.65;;;;;;;;;;5028580;28;20030;-59
2021/09/27 09:35:33;;;;;;;8.00;6.40;;;;;;;;;;5029970;28;20029;-59
2021/09/27 09:38:04;;;;;;;8.70;6.40;;;;;;;;;;5028508;28;20744;-60
2021/09/27 09:40:31;;;;;;;9.82;6.35;;;;;;;;;;5028407;28;20080;-59
2021/09/27 09:42:58;;;;;;;9.00;6.25;;;;;;;;;;5014525;28;20034;-59
2021/09/27 09:45:26;;;;;;;9.57;7.05;;;;;;;;;;4992430;28;20053;-59
2021/09/27 09:47:51;;;;;;;7.32;6.25;;;;;;;;;;4998310;28;20026;-58
2021/09/27 09:50:22;;;;;;;10.07;6.55;;;;;;;;;;4994881;28;20097;-60
2021/09/27 09:52:49;;;;;;;7.97;6.15;;;;;;;;;;4991686;28;20038;-59
2021/09/27 09:55:33;;;;;;;13.25;7.47;;;;;;;;;;5009668;28;20053;-60
2021/09/27 09:58:03;;;;;;;8.02;6.60;;;;;;;;;;5005270;28;20038;-58
2021/09/27 10:00:37;;;;;;;7.90;6.43;;;;;;;;;;5009077;28;20030;-59
2021/09/27 10:03:02;;;;;;;9.13;7.32;;;;;;;;;;4994599;28;20026;-58
2021/09/27 10:05:34;;;;;;;8.13;6.63;;;;;;;;;;4992898;28;20080;-58
2021/09/27 10:08:02;;;;;;;8.32;6.60;;;;;;;;;;4994680;28;20022;-59
2021/09/27 10:10:35;;;;;;;8.85;7.03;;;;;;;;;;4991778;28;20106;-59
2021/09/27 10:13:04;;;;;;;7.85;6.57;;;;;;;;;;4994953;28;20965;-60
2021/09/27 10:15:29;;;;;;;;;;;;;;;;;;4991982;28;20026;-59
2021/09/27 10:18:13;;;;;;;7.63;6.30;;;;;;;;;;4996888;28;20441;-60
2021/09/27 10:20:40;;;;;;;10.77;6.50;;;;;;;;;;4991715;28;20034;-59
2021/09/27 10:23:11;;;;;;;8.25;6.68;;;;;;;;;;4996832;28;20017;-59
2021/09/27 10:25:38;;;;;;;9.48;6.68;;;;;;;;;;5010365;28;20032;-59
2021/09/27 10:28:04;;;;;;;8.77;6.80;;;;;;;;;;5005235;28;20478;-59
2021/09/27 10:30:40;;;;;;;9.98;6.95;;;;;;;;;;4996508;28;20041;-59
2021/09/27 10:33:14;;;;;;;8.35;6.75;;;;;;;;;;4998756;28;20021;-59
2021/09/27 10:35:46;;;;;;;8.05;6.78;;;;;;;;;;4998405;28;20033;-59
2021/09/27 10:38:18;;;;;;;8.77;6.45;;;;;;;;;;4997356;28;20014;-60
2021/09/27 10:40:45;;;;;;;7.53;6.03;;;;;;;;;;5004051;28;20018;-59
2021/09/27 10:43:13;;;;;;;8.90;6.65;;;;;;;;;;5009457;28;20110;-58
2021/09/27 10:45:40;;;;;;;7.75;6.28;;;;;;;;;;5004224;28;20382;-59
2021/09/27 10:48:06;;;;;;;9.68;7.30;;;;;;;;;;5010488;28;20022;-58
2021/09/27 10:50:38;;;;;;;10.02;6.78;;;;;;;;;;5007180;28;20024;-59
2021/09/27 10:53:06;;;;;;;7.80;6.55;;;;;;;;;;5005138;28;20029;-60
2021/09/27 10:55:43;;;;;;;8.13;6.40;;;;;;;;;;5004470;28;20025;-60
2021/09/27 10:58:09;;;;;;;8.80;6.97;;;;;;;;;;5003865;28;20034;-58
2021/09/27 11:00:40;;;;;;;8.45;6.68;;;;;;;;;;5003103;28;20497;-60
2021/09/27 11:03:11;;;;;;;8.20;6.72;;;;;;;;;;5001398;28;20104;-59
2021/09/27 11:05:51;;;;;;;8.98;7.10;;;;;;;;;;5006056;28;20047;-58
2021/09/27 11:08:36;;;;;;;7.72;6.90;;;;;;;;;;5000438;28;20038;-59
2021/09/27 11:11:13;;;;;;;8.75;6.68;;;;;;;;;;5004325;28;20030;-59
2021/09/27 11:13:40;;;;;;;8.68;6.57;;;;;;;;;;5001833;28;20022;-58
2021/09/27 11:16:16;;;;;;;7.53;6.40;;;;;;;;;;5007125;28;20036;-60
2021/09/27 11:18:48;;;;;;;8.18;5.78;;;;;;;;;;5000956;28;20018;-59
2021/09/27 11:21:17;;;;;;;7.97;6.40;;;;;;;;;;5005701;28;20018;-60
2021/09/27 11:23:43;;;;;;;8.23;6.53;;;;;;;;;;5004146;28;20024;-60
2021/09/27 11:26:15;;;;;;;8.05;6.82;;;;;;;;;;5002450;28;20080;-59
2021/09/27 11:28:51;;;;;;;6.80;6.10;;;;;;;;;;5002224;28;20026;-58
2021/09/27 11:31:16;;;;;;;9.80;6.85;;;;;;;;;;4991719;28;20022;-59
2021/09/27 11:33:41;;;;;;;10.10;5.57;;;;;;;;;;5000588;28;20022;-59
2021/09/27 11:36:22;;;;;;;7.38;5.72;;;;;;;;;;4989975;28;20431;-59
2021/09/27 11:39:05;;;;;;;7.10;5.90;;;;;;;;;;4990197;28;20019;-59
2021/09/27 11:41:32;;;;;;;6.90;5.78;;;;;;;;;;4990324;28;20022;-59
2021/09/27 11:44:15;;;;;;;6.65;5.90;;;;;;;;;;4990357;28;20034;-59
2021/09/27 11:46:54;;;;;;;7.43;5.80;;;;;;;;;;5003095;28;20101;-59
2021/09/27 11:52:13;;;;;;;9.00;6.13;;;;;;;;;;5008804;28;20022;-59
2021/09/27 11:54:46;;;;;;;7.43;6.00;;;;;;;;;;5008275;28;20088;-58
2021/09/27 11:57:16;;;;;;;7.07;5.90;;;;;;;;;;5008770;28;20026;-58
2021/09/27 11:59:41;;;;;;;6.95;5.85;;;;;;;;;;4996043;28;20105;-59
2021/09/27 12:02:25;;;;;;;6.78;6.00;;;;;;;;;;4990306;28;20425;-58
2021/09/27 12:04:50;;;;;;;6.78;5.68;;;;;;;;;;4999499;28;20034;-60
2021/09/27 12:07:17;;;;;;;7.57;6.35;;;;;;;;;;4996755;28;20315;-60
2021/09/27 12:09:54;;;;;;;6.70;6.00;;;;;;;;;;4998763;28;20049;-60
2021/09/27 12:12:22;;;;;;;7.38;6.20;;;;;;;;;;4989965;28;20100;-60
2021/09/27 12:14:48;;;;;;;7.82;6.13;;;;;;;;;;5004157;28;20014;-60
2021/09/27 12:17:15;;;;;;;7.10;5.63;;;;;;;;;;4993907;28;20019;-59
2021/09/27 12:20:09;;;;;;;7.05;5.90;;;;;;;;;;5007141;28;20044;-59
2021/09/27 12:22:41;;;;;;;8.00;6.60;;;;;;;;;;5027002;28;20025;-62
2021/09/27 12:25:11;;;;;;;7.25;6.22;;;;;;;;;;5028715;28;20511;-59
2021/09/27 12:27:46;;;;;;;7.18;6.30;;;;;;;;;;5027566;28;20528;-61
2021/09/27 12:30:12;;;;;;;6.90;5.70;;;;;;;;;;5031619;28;20018;-58
2021/09/27 12:32:40;;;;;;;7.85;6.10;;;;;;;;;;5029032;28;20033;-61
2021/09/27 12:35:07;;;;;;;7.80;5.85;;;;;;;;;;5023532;28;20944;-59
2021/09/27 12:37:34;;;;;;;6.30;5.45;;;;;;;;;;5029077;28;20056;-60
2021/09/27 12:39:59;;;;;;;7.15;5.50;;;;;;;;;;5028591;28;20052;-60
2021/09/27 12:42:26;;;;;;;10.15;6.38;;;;;;;;;;5028178;28;20156;-60
2021/09/27 12:44:55;;;;;;;6.70;5.75;;;;;;;;;;5028742;28;20036;-60
2021/09/27 12:47:21;;;;;;;7.45;5.43;;;;;;;;;;5027459;28;20032;-59
2021/09/27 12:49:49;;;;;;;6.70;5.65;;;;;;;;;;5011872;28;20468;-60
2021/09/27 12:52:17;;;;;;;8.50;5.82;;;;;;;;;;5028199;28;20064;-59
2021/09/27 12:54:46;;;;;;;7.05;5.68;;;;;;;;;;5027735;28;20037;-60
2021/09/27 12:57:20;;;;;;;7.78;5.80;;;;;;;;;;5028302;28;20157;-59
2021/09/27 12:59:45;;;;;;;6.63;5.43;;;;;;;;;;5002073;28;20046;-62
2021/09/27 13:02:13;;;;;;;7.60;5.85;;;;;;;;;;4997717;28;20025;-61
2021/09/27 13:04:44;;;;;;;7.13;5.55;;;;;;;;;;5002426;28;20096;-60
2021/09/27 13:07:10;;;;;;;7.15;5.90;;;;;;;;;;4995081;28;20120;-58
2021/09/27 13:09:37;;;;;;;7.57;6.00;;;;;;;;;;4996713;28;20033;-61
2021/09/27 13:12:15;;;;;;;6.40;5.57;;;;;;;;;;4994719;28;20022;-60
2021/09/27 13:14:45;;;;;;;6.60;5.88;;;;;;;;;;4997547;28;20030;-60
2021/09/27 13:17:10;;;;;;;7.70;6.03;;;;;;;;;;4998123;28;20108;-60
2021/09/27 13:19:40;;;;;;;7.35;6.30;;;;;;;;;;5000409;28;20128;-60
2021/09/27 13:22:11;;;;;;;7.50;6.07;;;;;;;;;;4996505;28;20559;-60
2021/09/27 13:24:39;;;;;;;7.10;5.72;;;;;;;;;;5000263;28;20553;-59
2021/09/27 13:27:12;;;;;;;6.13;5.22;;;;;;;;;;4995455;28;20011;-60
2021/09/27 13:29:40;;;;;;;7.82;6.05;;;;;;;;;;4997250;28;20022;-61
2021/09/27 13:32:12;;;;;;;7.20;5.18;;;;;;;;;;4997123;28;20022;-60
2021/09/27 13:34:44;;;;;;;7.85;6.10;;;;;;;;;;4996093;28;20017;-59
2021/09/27 13:37:45;;;;;;;6.13;5.38;;;;;;;;;;4993363;28;20025;-60
2021/09/27 13:40:31;;;;;;;7.13;5.20;;;;;;;;;;5006676;28;20037;-61
2021/09/27 13:43:05;;;;;;;8.88;6.57;;;;;;;;;;5006888;28;20042;-58
2021/09/27 13:45:33;;;;;;;6.68;5.60;;;;;;;;;;5010576;28;20028;-59
2021/09/27 13:47:58;;;;;;;8.63;6.03;;;;;;;;;;5004952;28;20129;-59
2021/09/27 13:50:23;;;;;;;6.57;4.97;;;;;;;;;;5006398;28;20672;-58
2021/09/27 13:52:50;;;;;;;7.28;5.45;;;;;;;;;;5005763;28;20313;-59
2021/09/27 13:55:16;;;;;;;7.07;5.07;;;;;;;;;;5007617;28;20502;-60
2021/09/27 13:57:41;;;;;;;7.05;5.90;;;;;;;;;;5008183;28;20018;-59
2021/09/27 14:00:09;;;;;;;7.35;5.88;;;;;;;;;;5006458;28;20150;-59
2021/09/27 14:02:34;;;;;;;7.38;5.82;;;;;;;;;;5004726;28;20029;-60
2021/09/27 14:04:59;;;;;;;7.22;5.75;;;;;;;;;;5005892;28;20347;-60
2021/09/27 14:07:24;;;;;;;6.53;4.97;;;;;;;;;;5006135;28;20116;-59
2021/09/27 14:09:50;;;;;;;6.70;5.60;;;;;;;;;;5006430;28;20284;-60
2021/09/27 14:12:17;;;;;;;7.05;5.65;;;;;;;;;;5007428;28;20500;-59
2021/09/27 14:14:42;;;;;;;7.13;5.93;;;;;;;;;;4998940;28;20169;-60
2021/09/27 14:17:07;;;;;;;6.30;5.57;;;;;;;;;;5005041;28;20113;-60
2021/09/27 14:19:32;;;;;;;7.27;5.93;;;;;;;;;;5008681;28;20661;-60
2021/09/27 14:22:00;;;;;;;7.77;5.03;;;;;;;;;;4998266;28;20286;-60
2021/09/27 14:24:25;;;;;;;7.20;5.80;;;;;;;;;;4994692;28;20101;-59
2021/09/27 14:26:50;;;;;;;7.83;5.47;;;;;;;;;;4994457;28;20212;-59
2021/09/27 14:29:16;;;;;;;10.17;5.60;;;;;;;;;;5003343;28;20038;-61
2021/09/27 14:31:41;;;;;;;7.22;5.70;;;;;;;;;;4994988;28;20265;-60
2021/09/27 14:34:07;;;;;;;7.35;5.53;;;;;;;;;;4992639;28;20033;-58
2021/09/27 14:36:32;;;;;;;6.47;5.30;;;;;;;;;;5002899;28;20037;-61
2021/09/27 14:38:58;;;;;;;6.15;5.18;;;;;;;;;;4993882;28;20083;-60
2021/09/27 14:41:23;;;;;;;7.47;6.33;;;;;;;;;;4998270;28;20092;-61
2021/09/27 14:43:49;;;;;;;8.47;6.33;;;;;;;;;;4996438;28;20626;-60
2021/09/27 14:46:14;;;;;;;7.65;6.00;;;;;;;;;;4996474;28;20288;-61
2021/09/27 14:48:39;;;;;;;7.78;6.00;;;;;;;;;;4999793;28;20393;-60
2021/09/27 14:51:05;;;;;;;8.10;6.07;;;;;;;;;;5000588;28;20014;-60
2021/09/27 14:53:30;;;;;;;8.45;5.82;;;;;;;;;;4999018;28;20026;-60
2021/09/27 14:55:56;;;;;;;6.20;5.38;;;;;;;;;;5001905;28;20018;-60